createdAt,value
2018-06-17T00:02:30.101Z,18.70
2018-06-17T00:07:21.724Z,18.60
2018-06-17T00:12:12.606Z,18.60
2018-06-17T00:17:03.526Z,18.50
2018-06-17T00:21:54.468Z,18.50
2018-06-17T00:26:45.377Z,18.40
2018-06-17T00:31:36.280Z,18.40
2018-06-17T00:36:27.201Z,18.30
2018-06-17T00:41:18.119Z,18.30
2018-06-17T00:46:09.021Z,18.20
2018-06-17T00:50:59.910Z,18.20
2018-06-17T00:55:51.552Z,18.00
2018-06-17T01:00:43.182Z,17.90
2018-06-17T01:05:34.878Z,17.90
2018-06-17T01:10:25.782Z,17.90
2018-06-17T01:15:16.697Z,17.80
2018-06-17T01:20:07.627Z,17.80
2018-06-17T01:24:58.506Z,17.70
2018-06-17T01:29:49.407Z,17.60
2018-06-17T01:34:41.045Z,17.50
2018-06-17T01:39:32.688Z,17.50
2018-06-17T01:44:24.382Z,17.40
2018-06-17T01:49:15.262Z,17.40
2018-06-17T01:54:06.200Z,17.40
2018-06-17T01:58:57.090Z,17.30
2018-06-17T02:03:47.993Z,17.20
2018-06-17T02:08:45.742Z,17.10
2018-06-17T02:13:36.642Z,17.10
2018-06-17T02:18:27.539Z,17.00
2018-06-17T02:23:18.419Z,17.00
2018-06-17T02:28:10.062Z,16.90
2018-06-17T02:33:00.972Z,16.80
2018-06-17T02:37:52.614Z,16.70
2018-06-17T02:42:43.515Z,16.70
2018-06-17T02:47:53.404Z,16.70
2018-06-17T02:58:07.002Z,16.60
2018-06-17T03:02:57.911Z,16.60
2018-06-17T03:07:48.813Z,16.50
2018-06-17T03:12:39.726Z,16.40
2018-06-17T03:17:31.383Z,16.30
2018-06-17T03:22:22.330Z,16.30
2018-06-17T03:32:47.077Z,16.20
2018-06-17T03:37:37.980Z,16.20
2018-06-17T03:42:28.902Z,16.20
2018-06-17T03:47:19.796Z,16.20
2018-06-17T03:52:10.693Z,16.10
2018-06-17T03:57:02.320Z,16.10
2018-06-17T04:01:53.299Z,16.10
2018-06-17T04:06:44.193Z,16.10
2018-06-17T04:11:35.087Z,16.20
2018-06-17T04:16:26.727Z,16.20
2018-06-17T04:21:18.378Z,16.30
2018-06-17T04:26:09.271Z,16.30
2018-06-17T04:31:00.902Z,16.40
2018-06-17T04:35:52.534Z,16.50
2018-06-17T04:40:43.453Z,16.50
2018-06-17T04:45:35.113Z,16.70
2018-06-17T04:50:26.080Z,16.70
2018-06-17T04:55:16.967Z,16.90
2018-06-17T05:00:07.860Z,17.00
2018-06-17T05:04:59.559Z,17.30
2018-06-17T05:09:50.472Z,17.30
2018-06-17T05:14:41.447Z,17.50
2018-06-17T05:19:32.333Z,17.60
2018-06-17T05:24:23.252Z,17.80
2018-06-17T05:29:14.140Z,18.00
2018-06-17T05:34:05.047Z,18.10
2018-06-17T05:38:55.966Z,18.30
2018-06-17T05:43:46.865Z,18.40
2018-06-17T05:48:37.756Z,18.50
2018-06-17T05:53:29.428Z,18.80
2018-06-17T05:58:20.314Z,18.70
2018-06-17T06:03:11.973Z,19.00
2018-06-17T06:08:02.911Z,19.00
2018-06-17T06:12:53.826Z,19.10
2018-06-17T06:17:44.722Z,19.20
2018-06-17T06:22:35.680Z,19.30
2018-06-17T06:27:26.579Z,19.30
2018-06-17T06:32:17.480Z,19.40
2018-06-17T06:37:08.425Z,19.50
2018-06-17T06:41:59.315Z,19.60
2018-06-17T06:46:50.198Z,19.70
2018-06-17T06:51:41.830Z,20.00
2018-06-17T06:56:32.733Z,20.00
2018-06-17T07:01:23.817Z,20.10
2018-06-17T07:11:40.542Z,20.50
2018-06-17T07:16:44.836Z,21.00
2018-06-17T07:21:35.686Z,20.90
2018-06-17T07:26:39.930Z,21.50
2018-06-17T07:31:31.457Z,21.40
2018-06-17T07:36:22.371Z,21.70
2018-06-17T07:41:14.071Z,22.20
2018-06-17T07:46:04.973Z,22.20
2018-06-17T07:51:08.361Z,22.40
2018-06-17T07:55:59.258Z,22.60
2018-06-17T08:00:50.876Z,23.00
2018-06-17T08:05:42.524Z,23.10
2018-06-17T08:10:34.165Z,23.20
2018-06-17T08:15:25.802Z,23.30
2018-06-17T08:20:17.510Z,23.50
2018-06-17T08:25:08.416Z,23.40
2018-06-17T08:29:59.447Z,23.60
2018-06-17T08:34:50.342Z,23.60
2018-06-17T08:39:41.230Z,23.70
2018-06-17T08:44:32.221Z,23.80
2018-06-17T08:49:23.862Z,24.00
2018-06-17T08:54:15.579Z,24.10
2018-06-17T08:59:06.532Z,24.10
2018-06-17T09:03:58.392Z,24.30
2018-06-17T09:08:49.356Z,24.20
2018-06-17T09:13:40.374Z,24.40
2018-06-17T09:18:31.280Z,24.50
2018-06-17T09:23:22.170Z,24.50
2018-06-17T09:28:13.076Z,24.60
2018-06-17T09:33:04.034Z,24.70
2018-06-17T09:37:54.996Z,24.80
2018-06-17T09:42:45.843Z,24.90
2018-06-17T09:47:36.727Z,25.00
2018-06-17T09:52:27.740Z,25.20
2018-06-17T09:57:19.392Z,25.40
2018-06-17T10:02:11.018Z,25.50
2018-06-17T10:07:02.706Z,25.60
2018-06-17T10:11:53.687Z,25.60
2018-06-17T10:16:45.382Z,25.70
2018-06-17T10:21:36.278Z,25.70
2018-06-17T10:26:27.204Z,25.80
2018-06-17T10:31:18.271Z,25.80
2018-06-17T10:36:09.910Z,26.00
2018-06-17T10:41:01.544Z,26.10
2018-06-17T10:45:53.417Z,26.30
2018-06-17T10:50:44.326Z,26.30
2018-06-17T10:55:35.342Z,26.50
2018-06-17T11:00:26.390Z,26.70
2018-06-17T11:05:17.420Z,26.80
2018-06-17T11:10:08.320Z,27.00
2018-06-17T11:14:59.255Z,27.30
2018-06-17T11:19:50.162Z,27.50
2018-06-17T11:24:41.065Z,27.70
2018-06-17T11:29:32.041Z,27.90
2018-06-17T11:34:22.954Z,28.20
2018-06-17T11:39:13.971Z,28.40
2018-06-17T11:44:04.819Z,28.70
2018-06-17T11:48:56.515Z,28.90
2018-06-17T11:53:47.459Z,28.90
2018-06-17T11:58:38.466Z,29.00
2018-06-17T12:03:29.385Z,29.20
2018-06-17T12:08:20.292Z,29.40
2018-06-17T12:13:11.343Z,29.60
2018-06-17T12:18:03.047Z,30.00
2018-06-17T12:22:54.575Z,30.00
2018-06-17T12:27:46.561Z,30.10
2018-06-17T12:32:37.539Z,30.10
2018-06-17T12:37:28.481Z,30.10
2018-06-17T12:42:19.490Z,30.30
2018-06-17T12:47:10.407Z,30.50
2018-06-17T12:52:01.341Z,30.90
2018-06-17T12:56:52.243Z,31.10
2018-06-17T13:01:43.137Z,31.30
2018-06-17T13:06:34.022Z,31.30
2018-06-17T13:11:25.724Z,31.20
2018-06-17T13:16:16.667Z,31.20
2018-06-17T13:21:07.651Z,31.20
2018-06-17T13:25:59.400Z,31.10
2018-06-17T13:30:50.304Z,31.10
2018-06-17T13:35:41.241Z,31.10
2018-06-17T13:40:32.135Z,31.20
2018-06-17T13:45:23.106Z,31.40
2018-06-17T13:50:14.801Z,31.80
2018-06-17T13:55:05.722Z,31.80
2018-06-17T13:59:56.628Z,31.90
2018-06-17T14:04:47.537Z,31.90
2018-06-17T14:09:38.488Z,31.90
2018-06-17T14:14:29.401Z,31.70
2018-06-17T14:19:20.296Z,31.60
2018-06-17T14:24:11.183Z,31.40
2018-06-17T14:29:02.819Z,31.20
2018-06-17T14:33:53.727Z,31.20
2018-06-17T14:38:45.355Z,31.10
2018-06-17T14:49:14.705Z,31.00
2018-06-17T14:54:06.343Z,30.90
2018-06-17T14:58:58.003Z,30.70
2018-06-17T15:03:48.972Z,30.60
2018-06-17T15:08:39.873Z,30.60
2018-06-17T15:13:30.799Z,30.50
2018-06-17T15:18:21.713Z,30.40
2018-06-17T15:23:12.638Z,30.30
2018-06-17T15:28:03.555Z,30.20
2018-06-17T15:33:14.365Z,30.00
2018-06-17T15:43:27.998Z,29.60
2018-06-17T15:48:18.908Z,29.50
2018-06-17T15:53:09.799Z,29.30
2018-06-17T15:58:01.435Z,28.90
2018-06-17T16:02:53.075Z,28.70
2018-06-17T16:07:44.716Z,28.50
2018-06-17T16:12:35.607Z,28.50
2018-06-17T16:17:45.337Z,28.30
2018-06-17T16:22:36.227Z,28.10
2018-06-17T16:27:27.114Z,27.90
2018-06-17T16:32:18.763Z,27.60
2018-06-17T16:37:09.659Z,27.50
2018-06-17T16:42:00.550Z,27.40
2018-06-17T16:46:52.175Z,26.90
2018-06-17T16:51:43.325Z,26.90
2018-06-17T16:56:40.523Z,26.80
2018-06-17T17:01:32.165Z,26.40
2018-06-17T17:06:23.136Z,26.40
2018-06-17T17:11:14.031Z,26.20
2018-06-17T17:16:04.945Z,26.00
2018-06-17T17:20:55.847Z,25.80
2018-06-17T17:25:46.748Z,25.60
2018-06-17T17:30:38.397Z,25.30
2018-06-17T17:40:47.990Z,25.10
2018-06-17T17:45:38.892Z,25.00
2018-06-17T17:50:30.626Z,24.70
2018-06-17T17:55:22.325Z,24.50
2018-06-17T18:00:20.362Z,24.50
2018-06-17T18:05:11.275Z,24.40
2018-06-17T18:10:02.317Z,24.30
2018-06-17T18:14:53.225Z,24.20
2018-06-17T18:19:44.132Z,24.10
2018-06-17T18:24:35.044Z,24.00
2018-06-17T18:29:42.616Z,23.90
2018-06-17T18:34:51.508Z,23.80
2018-06-17T18:39:42.409Z,23.70
2018-06-17T18:44:34.100Z,23.50
2018-06-17T18:49:24.986Z,23.50
2018-06-17T18:54:15.949Z,23.30
2018-06-17T18:59:07.016Z,23.20
2018-06-17T19:03:57.945Z,23.00
2018-06-17T19:08:49.009Z,22.90
2018-06-17T19:13:56.909Z,22.70
2018-06-17T19:18:47.930Z,22.50
2018-06-17T19:23:39.713Z,22.10
2018-06-17T19:28:31.356Z,21.90
2018-06-17T19:33:23.056Z,21.70
2018-06-17T19:38:13.960Z,21.70
2018-06-17T19:43:04.904Z,21.50
2018-06-17T19:47:55.913Z,21.30
2018-06-17T19:53:04.848Z,21.10
2018-06-17T19:58:11.711Z,21.00
2018-06-17T20:03:02.606Z,20.80
2018-06-17T20:07:54.283Z,20.40
2018-06-17T20:12:45.181Z,20.40
2018-06-17T20:17:36.156Z,20.20
2018-06-17T20:22:27.096Z,20.00
2018-06-17T20:27:18.809Z,19.60
2018-06-17T20:32:09.718Z,19.60
2018-06-17T20:37:15.622Z,19.40
2018-06-17T20:42:13.690Z,19.10
2018-06-17T20:47:04.539Z,19.00
2018-06-17T20:51:56.693Z,18.70
2018-06-17T20:56:47.689Z,18.70
2018-06-17T21:01:38.707Z,18.50
2018-06-17T21:06:29.695Z,18.30
2018-06-17T21:11:20.660Z,18.20
2018-06-17T21:16:12.301Z,17.90
2018-06-17T21:21:22.876Z,17.70
2018-06-17T21:26:20.859Z,17.60
2018-06-17T21:31:12.568Z,17.40
2018-06-17T21:36:03.527Z,17.40
2018-06-17T21:40:55.225Z,17.20
2018-06-17T21:45:47.607Z,17.00
2018-06-17T21:50:39.305Z,16.90
2018-06-17T21:55:30.211Z,16.80
2018-06-17T22:00:21.099Z,16.70
2018-06-17T22:05:12.058Z,16.60
2018-06-17T22:15:42.584Z,16.40
2018-06-17T22:20:34.248Z,16.20
2018-06-17T22:25:25.192Z,16.20
2018-06-17T22:30:16.121Z,16.10
2018-06-17T22:35:07.030Z,16.00
2018-06-17T22:39:57.949Z,15.90
2018-06-17T22:44:48.861Z,15.80
2018-06-17T22:49:39.787Z,15.70
2018-06-17T22:54:43.188Z,15.60
2018-06-17T22:59:49.914Z,15.50
2018-06-17T23:10:00.295Z,15.20
2018-06-17T23:14:51.185Z,15.20
2018-06-17T23:19:42.141Z,15.20
2018-06-17T23:24:33.202Z,15.10
2018-06-17T23:29:24.887Z,15.00
2018-06-17T23:34:15.795Z,14.90
2018-06-17T23:39:06.711Z,14.90
2018-06-17T23:43:57.632Z,14.80
2018-06-17T23:49:03.526Z,14.80
2018-06-17T23:54:09.442Z,14.70
2018-06-17T23:59:00.372Z,14.60
